Terminal Aerodrome Forecast
Issued by NWS

Home | Current Version | Previous Version | Text Only | Print | Product List | Glossary On
Versions: 1 2 3 4 5 6 7 8 9 10 11 12
000
FTUS46 KHNX 040520
TAFFAT
TAF
KFAT 040520Z 0406/0506 32008KT P6SM SKC
     FM041100 VRB04KT P6SM SKC
     FM050000 31008KT P6SM SKC=

USA.gov is the U.S. government's official web portal to all federal, state and local government web resources and services.